Newport, Texas
Current Conditions -  °F | °C
As of 11:35 PM on Wednesday 17 Dec 2014 (Local Time) from K0F2 Reporting Station
Haze Haze  
Wind Chill: 35°   Ceiling: 300
Heat Index: 39°   Visibility: 5mi
Dew Point: 38°   Wind: 6mph
Humidity: 99%   Direction: 130°SE
Pressure: 30.13"   Gusts: NA
Location:  33.5529°N, 97.8448°W
Report Text: K0F2 180535Z AUTO 13005KT 5SM BR OVC003 04/04 A3013 RMK AO2 T00380036
Loading
Personal Weather Stations






























Interactive Weather Map New forecast layout! Learn more

10-Day Weather Forecast

Advertisements
Track Severe Weather on mobile